sensor_id;sensor_type;location;lat;lon;timestamp;P1;durP1;ratioP1;P2;durP2;ratioP2
10458;SDS011;5277;48.722;8.736;2023-08-07T00:00:25;2.50;;;1.77;;
10458;SDS011;5277;48.722;8.736;2023-08-07T00:02:51;3.38;;;1.40;;
10458;SDS011;5277;48.722;8.736;2023-08-07T00:05:17;4.22;;;2.00;;
10458;SDS011;5277;48.722;8.736;2023-08-07T00:07:43;2.75;;;1.40;;
10458;SDS011;5277;48.722;8.736;2023-08-07T00:10:08;3.17;;;1.40;;
10458;SDS011;5277;48.722;8.736;2023-08-07T00:12:34;8.35;;;1.58;;
10458;SDS011;5277;48.722;8.736;2023-08-07T00:15:00;4.13;;;1.58;;
10458;SDS011;5277;48.722;8.736;2023-08-07T00:17:27;4.78;;;1.58;;
10458;SDS011;5277;48.722;8.736;2023-08-07T00:19:53;4.85;;;2.05;;
10458;SDS011;5277;48.722;8.736;2023-08-07T00:22:19;4.13;;;1.52;;
10458;SDS011;5277;48.722;8.736;2023-08-07T00:24:45;5.60;;;1.73;;
10458;SDS011;5277;48.722;8.736;2023-08-07T00:27:10;5.93;;;1.70;;
10458;SDS011;5277;48.722;8.736;2023-08-07T00:29:37;8.68;;;1.67;;
10458;SDS011;5277;48.722;8.736;2023-08-07T00:32:03;3.67;;;1.60;;
10458;SDS011;5277;48.722;8.736;2023-08-07T00:34:29;8.52;;;1.50;;
10458;SDS011;5277;48.722;8.736;2023-08-07T00:36:55;3.20;;;1.80;;
10458;SDS011;5277;48.722;8.736;2023-08-07T00:39:20;2.88;;;1.50;;
10458;SDS011;5277;48.722;8.736;2023-08-07T00:41:46;7.93;;;1.52;;
10458;SDS011;5277;48.722;8.736;2023-08-07T00:44:12;2.47;;;1.48;;
10458;SDS011;5277;48.722;8.736;2023-08-07T00:46:37;2.78;;;1.45;;
10458;SDS011;5277;48.722;8.736;2023-08-07T00:49:06;9.75;;;1.65;;
10458;SDS011;5277;48.722;8.736;2023-08-07T00:51:34;4.90;;;1.55;;
10458;SDS011;5277;48.722;8.736;2023-08-07T00:54:01;3.97;;;1.50;;
10458;SDS011;5277;48.722;8.736;2023-08-07T00:56:28;2.75;;;1.63;;
10458;SDS011;5277;48.722;8.736;2023-08-07T00:58:55;7.32;;;1.67;;
10458;SDS011;5277;48.722;8.736;2023-08-07T01:01:20;4.78;;;1.67;;
10458;SDS011;5277;48.722;8.736;2023-08-07T01:03:46;9.00;;;1.80;;
10458;SDS011;5277;48.722;8.736;2023-08-07T01:06:12;2.22;;;1.60;;
10458;SDS011;5277;48.722;8.736;2023-08-07T01:08:37;3.90;;;1.70;;
10458;SDS011;5277;48.722;8.736;2023-08-07T01:11:21;6.70;;;2.05;;
10458;SDS011;5277;48.722;8.736;2023-08-07T01:16:50;4.07;;;1.70;;
10458;SDS011;5277;48.722;8.736;2023-08-07T01:19:28;6.07;;;1.95;;
10458;SDS011;5277;48.722;8.736;2023-08-07T01:22:04;5.78;;;2.05;;
10458;SDS011;5277;48.722;8.736;2023-08-07T01:24:33;2.30;;;1.58;;
10458;SDS011;5277;48.722;8.736;2023-08-07T01:29:58;1.75;;;1.50;;
10458;SDS011;5277;48.722;8.736;2023-08-07T01:35:10;2.58;;;1.50;;
10458;SDS011;5277;48.722;8.736;2023-08-07T01:37:38;3.13;;;1.50;;
10458;SDS011;5277;48.722;8.736;2023-08-07T01:40:06;3.03;;;1.80;;
10458;SDS011;5277;48.722;8.736;2023-08-07T01:42:34;2.95;;;1.70;;
10458;SDS011;5277;48.722;8.736;2023-08-07T01:45:01;4.13;;;2.10;;
10458;SDS011;5277;48.722;8.736;2023-08-07T01:47:26;3.80;;;1.77;;
10458;SDS011;5277;48.722;8.736;2023-08-07T01:49:52;2.88;;;1.70;;
10458;SDS011;5277;48.722;8.736;2023-08-07T01:52:18;4.45;;;1.58;;
10458;SDS011;5277;48.722;8.736;2023-08-07T01:54:44;4.55;;;1.55;;
10458;SDS011;5277;48.722;8.736;2023-08-07T01:57:10;5.57;;;2.00;;
10458;SDS011;5277;48.722;8.736;2023-08-07T01:59:35;4.18;;;1.42;;
10458;SDS011;5277;48.722;8.736;2023-08-07T02:02:01;7.68;;;1.98;;
10458;SDS011;5277;48.722;8.736;2023-08-07T02:04:27;6.03;;;2.08;;
10458;SDS011;5277;48.722;8.736;2023-08-07T02:06:52;4.05;;;2.15;;
10458;SDS011;5277;48.722;8.736;2023-08-07T02:09:18;3.40;;;1.73;;
10458;SDS011;5277;48.722;8.736;2023-08-07T02:11:43;5.00;;;1.80;;
10458;SDS011;5277;48.722;8.736;2023-08-07T02:14:09;2.83;;;1.65;;
10458;SDS011;5277;48.722;8.736;2023-08-07T02:16:35;4.25;;;1.50;;
10458;SDS011;5277;48.722;8.736;2023-08-07T02:19:02;3.10;;;1.63;;
10458;SDS011;5277;48.722;8.736;2023-08-07T02:21:27;8.15;;;2.08;;
10458;SDS011;5277;48.722;8.736;2023-08-07T02:23:53;11.20;;;2.13;;
10458;SDS011;5277;48.722;8.736;2023-08-07T02:26:18;3.38;;;1.90;;
10458;SDS011;5277;48.722;8.736;2023-08-07T02:28:44;7.22;;;2.47;;
10458;SDS011;5277;48.722;8.736;2023-08-07T02:31:10;6.75;;;2.60;;
10458;SDS011;5277;48.722;8.736;2023-08-07T02:33:35;6.10;;;2.10;;
10458;SDS011;5277;48.722;8.736;2023-08-07T02:36:01;4.15;;;2.28;;
10458;SDS011;5277;48.722;8.736;2023-08-07T02:38:26;9.77;;;2.00;;
10458;SDS011;5277;48.722;8.736;2023-08-07T02:40:52;6.50;;;1.90;;
10458;SDS011;5277;48.722;8.736;2023-08-07T02:43:17;6.15;;;2.20;;
10458;SDS011;5277;48.722;8.736;2023-08-07T02:45:43;6.82;;;1.90;;
10458;SDS011;5277;48.722;8.736;2023-08-07T02:48:08;5.75;;;1.88;;
10458;SDS011;5277;48.722;8.736;2023-08-07T02:50:35;7.18;;;2.33;;
10458;SDS011;5277;48.722;8.736;2023-08-07T02:53:01;9.65;;;1.65;;
10458;SDS011;5277;48.722;8.736;2023-08-07T02:55:27;3.42;;;1.50;;
10458;SDS011;5277;48.722;8.736;2023-08-07T02:57:52;3.45;;;1.90;;
10458;SDS011;5277;48.722;8.736;2023-08-07T03:00:18;4.53;;;1.52;;
10458;SDS011;5277;48.722;8.736;2023-08-07T03:02:44;3.67;;;1.48;;
10458;SDS011;5277;48.722;8.736;2023-08-07T03:05:09;5.85;;;1.75;;
10458;SDS011;5277;48.722;8.736;2023-08-07T03:07:35;3.80;;;1.98;;
10458;SDS011;5277;48.722;8.736;2023-08-07T03:10:00;4.28;;;1.70;;
10458;SDS011;5277;48.722;8.736;2023-08-07T03:12:26;4.65;;;1.80;;
10458;SDS011;5277;48.722;8.736;2023-08-07T03:14:52;3.60;;;1.50;;
10458;SDS011;5277;48.722;8.736;2023-08-07T03:17:17;3.45;;;1.45;;
10458;SDS011;5277;48.722;8.736;2023-08-07T03:19:43;8.55;;;1.83;;
10458;SDS011;5277;48.722;8.736;2023-08-07T03:22:09;3.92;;;1.60;;
10458;SDS011;5277;48.722;8.736;2023-08-07T03:24:34;5.18;;;2.17;;
10458;SDS011;5277;48.722;8.736;2023-08-07T03:27:00;3.42;;;1.55;;
10458;SDS011;5277;48.722;8.736;2023-08-07T03:29:26;3.30;;;1.58;;
10458;SDS011;5277;48.722;8.736;2023-08-07T03:31:51;4.63;;;1.75;;
10458;SDS011;5277;48.722;8.736;2023-08-07T03:34:17;3.60;;;1.55;;
10458;SDS011;5277;48.722;8.736;2023-08-07T03:36:43;3.17;;;1.70;;
10458;SDS011;5277;48.722;8.736;2023-08-07T03:39:09;7.45;;;2.05;;
10458;SDS011;5277;48.722;8.736;2023-08-07T03:41:36;6.70;;;1.50;;
10458;SDS011;5277;48.722;8.736;2023-08-07T03:44:02;6.00;;;1.90;;
10458;SDS011;5277;48.722;8.736;2023-08-07T03:46:28;5.65;;;1.60;;
10458;SDS011;5277;48.722;8.736;2023-08-07T03:48:54;5.22;;;1.85;;
10458;SDS011;5277;48.722;8.736;2023-08-07T03:51:19;8.93;;;2.10;;
10458;SDS011;5277;48.722;8.736;2023-08-07T03:53:45;4.72;;;1.88;;
10458;SDS011;5277;48.722;8.736;2023-08-07T03:56:10;4.40;;;2.10;;
10458;SDS011;5277;48.722;8.736;2023-08-07T03:58:36;2.58;;;1.60;;
10458;SDS011;5277;48.722;8.736;2023-08-07T04:01:01;3.45;;;1.50;;
10458;SDS011;5277;48.722;8.736;2023-08-07T04:03:27;5.28;;;1.90;;
10458;SDS011;5277;48.722;8.736;2023-08-07T04:05:53;4.22;;;1.60;;
10458;SDS011;5277;48.722;8.736;2023-08-07T04:08:20;2.95;;;1.55;;
10458;SDS011;5277;48.722;8.736;2023-08-07T04:10:57;5.93;;;1.73;;
10458;SDS011;5277;48.722;8.736;2023-08-07T04:13:26;5.30;;;2.20;;
10458;SDS011;5277;48.722;8.736;2023-08-07T04:15:52;4.40;;;1.70;;
10458;SDS011;5277;48.722;8.736;2023-08-07T04:18:18;3.72;;;1.90;;
10458;SDS011;5277;48.722;8.736;2023-08-07T04:20:48;3.90;;;1.77;;
10458;SDS011;5277;48.722;8.736;2023-08-07T04:23:23;6.03;;;1.63;;
10458;SDS011;5277;48.722;8.736;2023-08-07T04:25:50;6.85;;;1.70;;
10458;SDS011;5277;48.722;8.736;2023-08-07T04:28:16;4.82;;;2.00;;
10458;SDS011;5277;48.722;8.736;2023-08-07T04:30:43;4.00;;;1.70;;
10458;SDS011;5277;48.722;8.736;2023-08-07T04:33:09;3.63;;;1.67;;
10458;SDS011;5277;48.722;8.736;2023-08-07T04:35:35;7.80;;;2.17;;
10458;SDS011;5277;48.722;8.736;2023-08-07T04:38:01;6.70;;;2.15;;
10458;SDS011;5277;48.722;8.736;2023-08-07T04:40:28;4.97;;;1.92;;
10458;SDS011;5277;48.722;8.736;2023-08-07T04:42:54;4.20;;;1.83;;
10458;SDS011;5277;48.722;8.736;2023-08-07T04:45:19;4.93;;;1.98;;
10458;SDS011;5277;48.722;8.736;2023-08-07T04:47:45;5.45;;;2.10;;
10458;SDS011;5277;48.722;8.736;2023-08-07T04:50:11;5.93;;;2.10;;
10458;SDS011;5277;48.722;8.736;2023-08-07T04:52:36;5.63;;;1.85;;
10458;SDS011;5277;48.722;8.736;2023-08-07T04:55:02;5.15;;;2.30;;
10458;SDS011;5277;48.722;8.736;2023-08-07T04:57:28;5.72;;;2.10;;
10458;SDS011;5277;48.722;8.736;2023-08-07T04:59:53;7.93;;;1.98;;
10458;SDS011;5277;48.722;8.736;2023-08-07T05:02:19;8.77;;;1.92;;
10458;SDS011;5277;48.722;8.736;2023-08-07T05:04:44;3.42;;;1.77;;
10458;SDS011;5277;48.722;8.736;2023-08-07T05:07:10;7.90;;;1.73;;
10458;SDS011;5277;48.722;8.736;2023-08-07T05:09:37;5.97;;;1.75;;
10458;SDS011;5277;48.722;8.736;2023-08-07T05:12:03;2.58;;;2.03;;
10458;SDS011;5277;48.722;8.736;2023-08-07T05:14:29;6.45;;;2.20;;
10458;SDS011;5277;48.722;8.736;2023-08-07T05:16:55;4.28;;;1.95;;
10458;SDS011;5277;48.722;8.736;2023-08-07T05:19:21;4.15;;;2.13;;
10458;SDS011;5277;48.722;8.736;2023-08-07T05:21:47;5.47;;;1.83;;
10458;SDS011;5277;48.722;8.736;2023-08-07T05:24:19;3.08;;;2.00;;
10458;SDS011;5277;48.722;8.736;2023-08-07T05:26:44;7.90;;;1.85;;
10458;SDS011;5277;48.722;8.736;2023-08-07T05:29:10;6.80;;;1.67;;
10458;SDS011;5277;48.722;8.736;2023-08-07T05:31:36;4.63;;;1.60;;
10458;SDS011;5277;48.722;8.736;2023-08-07T05:34:02;5.43;;;1.70;;
10458;SDS011;5277;48.722;8.736;2023-08-07T05:36:27;2.67;;;1.70;;
10458;SDS011;5277;48.722;8.736;2023-08-07T05:38:55;5.72;;;1.92;;
10458;SDS011;5277;48.722;8.736;2023-08-07T05:41:20;5.63;;;2.15;;
10458;SDS011;5277;48.722;8.736;2023-08-07T05:43:46;3.95;;;2.50;;
10458;SDS011;5277;48.722;8.736;2023-08-07T05:46:11;5.22;;;2.10;;
10458;SDS011;5277;48.722;8.736;2023-08-07T05:48:37;6.00;;;2.30;;
10458;SDS011;5277;48.722;8.736;2023-08-07T05:51:03;5.00;;;1.90;;
10458;SDS011;5277;48.722;8.736;2023-08-07T05:53:28;6.15;;;2.05;;
10458;SDS011;5277;48.722;8.736;2023-08-07T05:55:54;6.15;;;1.85;;
10458;SDS011;5277;48.722;8.736;2023-08-07T05:58:20;4.57;;;1.98;;
10458;SDS011;5277;48.722;8.736;2023-08-07T06:00:46;5.15;;;1.85;;
10458;SDS011;5277;48.722;8.736;2023-08-07T06:03:12;4.10;;;1.90;;
10458;SDS011;5277;48.722;8.736;2023-08-07T06:05:37;5.43;;;1.90;;
10458;SDS011;5277;48.722;8.736;2023-08-07T06:08:03;5.05;;;1.90;;
10458;SDS011;5277;48.722;8.736;2023-08-07T06:10:29;5.70;;;1.88;;
10458;SDS011;5277;48.722;8.736;2023-08-07T06:12:54;3.10;;;2.10;;
10458;SDS011;5277;48.722;8.736;2023-08-07T06:15:20;5.05;;;2.10;;
10458;SDS011;5277;48.722;8.736;2023-08-07T06:17:46;3.83;;;2.35;;
10458;SDS011;5277;48.722;8.736;2023-08-07T06:20:11;5.97;;;2.08;;
10458;SDS011;5277;48.722;8.736;2023-08-07T06:22:39;5.00;;;2.28;;
10458;SDS011;5277;48.722;8.736;2023-08-07T06:25:05;5.50;;;2.05;;
10458;SDS011;5277;48.722;8.736;2023-08-07T06:27:31;4.47;;;1.90;;
10458;SDS011;5277;48.722;8.736;2023-08-07T06:29:57;4.47;;;2.10;;
10458;SDS011;5277;48.722;8.736;2023-08-07T06:32:24;7.57;;;2.00;;
10458;SDS011;5277;48.722;8.736;2023-08-07T06:34:50;2.95;;;1.70;;
10458;SDS011;5277;48.722;8.736;2023-08-07T06:37:16;4.53;;;1.90;;
10458;SDS011;5277;48.722;8.736;2023-08-07T06:39:41;4.13;;;1.80;;
10458;SDS011;5277;48.722;8.736;2023-08-07T06:42:07;6.68;;;1.90;;
10458;SDS011;5277;48.722;8.736;2023-08-07T06:44:33;3.92;;;1.92;;
10458;SDS011;5277;48.722;8.736;2023-08-07T06:46:58;1.92;;;1.48;;
10458;SDS011;5277;48.722;8.736;2023-08-07T06:49:24;3.97;;;1.98;;
10458;SDS011;5277;48.722;8.736;2023-08-07T06:51:50;8.05;;;1.90;;
10458;SDS011;5277;48.722;8.736;2023-08-07T06:54:15;4.40;;;2.63;;
10458;SDS011;5277;48.722;8.736;2023-08-07T06:56:41;4.38;;;1.77;;
10458;SDS011;5277;48.722;8.736;2023-08-07T06:59:08;2.85;;;1.80;;
10458;SDS011;5277;48.722;8.736;2023-08-07T07:01:36;3.53;;;1.50;;
10458;SDS011;5277;48.722;8.736;2023-08-07T07:04:01;5.93;;;1.48;;
10458;SDS011;5277;48.722;8.736;2023-08-07T07:06:27;3.10;;;1.60;;
10458;SDS011;5277;48.722;8.736;2023-08-07T07:08:53;4.20;;;1.38;;
10458;SDS011;5277;48.722;8.736;2023-08-07T07:11:22;4.15;;;1.40;;
10458;SDS011;5277;48.722;8.736;2023-08-07T07:13:49;3.50;;;1.73;;
10458;SDS011;5277;48.722;8.736;2023-08-07T07:16:17;4.93;;;1.45;;
10458;SDS011;5277;48.722;8.736;2023-08-07T07:18:50;3.47;;;1.52;;
10458;SDS011;5277;48.722;8.736;2023-08-07T07:21:16;1.77;;;1.30;;
10458;SDS011;5277;48.722;8.736;2023-08-07T07:23:42;1.80;;;1.30;;
10458;SDS011;5277;48.722;8.736;2023-08-07T07:26:07;2.20;;;1.42;;
10458;SDS011;5277;48.722;8.736;2023-08-07T07:28:33;2.15;;;1.13;;
10458;SDS011;5277;48.722;8.736;2023-08-07T07:30:58;1.30;;;1.08;;
10458;SDS011;5277;48.722;8.736;2023-08-07T07:33:24;1.48;;;1.17;;
10458;SDS011;5277;48.722;8.736;2023-08-07T07:35:50;3.40;;;1.65;;
10458;SDS011;5277;48.722;8.736;2023-08-07T07:38:15;1.55;;;1.10;;
10458;SDS011;5277;48.722;8.736;2023-08-07T07:40:41;1.77;;;1.20;;
10458;SDS011;5277;48.722;8.736;2023-08-07T07:43:07;2.80;;;1.17;;
10458;SDS011;5277;48.722;8.736;2023-08-07T07:45:32;3.05;;;1.10;;
10458;SDS011;5277;48.722;8.736;2023-08-07T07:48:02;1.75;;;1.00;;
10458;SDS011;5277;48.722;8.736;2023-08-07T07:50:28;3.58;;;1.40;;
10458;SDS011;5277;48.722;8.736;2023-08-07T07:52:54;1.92;;;1.27;;
10458;SDS011;5277;48.722;8.736;2023-08-07T07:55:19;2.72;;;1.42;;
10458;SDS011;5277;48.722;8.736;2023-08-07T07:57:45;5.07;;;1.20;;
10458;SDS011;5277;48.722;8.736;2023-08-07T08:00:11;1.85;;;1.30;;
10458;SDS011;5277;48.722;8.736;2023-08-07T08:02:38;5.63;;;1.50;;
10458;SDS011;5277;48.722;8.736;2023-08-07T08:05:06;3.38;;;1.48;;
10458;SDS011;5277;48.722;8.736;2023-08-07T08:07:32;1.85;;;1.20;;
10458;SDS011;5277;48.722;8.736;2023-08-07T08:09:59;4.07;;;1.30;;
10458;SDS011;5277;48.722;8.736;2023-08-07T08:12:25;2.38;;;1.30;;
10458;SDS011;5277;48.722;8.736;2023-08-07T08:14:50;2.80;;;1.42;;
10458;SDS011;5277;48.722;8.736;2023-08-07T08:17:16;3.90;;;1.40;;
10458;SDS011;5277;48.722;8.736;2023-08-07T08:19:42;5.40;;;1.60;;
10458;SDS011;5277;48.722;8.736;2023-08-07T08:22:07;1.15;;;1.00;;
10458;SDS011;5277;48.722;8.736;2023-08-07T08:24:33;3.55;;;1.17;;
10458;SDS011;5277;48.722;8.736;2023-08-07T08:26:59;3.35;;;1.27;;
10458;SDS011;5277;48.722;8.736;2023-08-07T08:29:25;2.97;;;1.17;;
10458;SDS011;5277;48.722;8.736;2023-08-07T08:31:53;1.98;;;0.90;;
10458;SDS011;5277;48.722;8.736;2023-08-07T08:34:19;2.63;;;1.15;;
10458;SDS011;5277;48.722;8.736;2023-08-07T08:36:46;1.45;;;1.00;;
10458;SDS011;5277;48.722;8.736;2023-08-07T08:39:12;1.40;;;1.00;;
10458;SDS011;5277;48.722;8.736;2023-08-07T08:41:38;2.17;;;1.10;;
10458;SDS011;5277;48.722;8.736;2023-08-07T08:44:06;1.88;;;1.10;;
10458;SDS011;5277;48.722;8.736;2023-08-07T08:46:32;1.05;;;0.82;;
10458;SDS011;5277;48.722;8.736;2023-08-07T08:48:59;2.00;;;1.10;;
10458;SDS011;5277;48.722;8.736;2023-08-07T08:51:26;2.20;;;1.02;;
10458;SDS011;5277;48.722;8.736;2023-08-07T08:53:53;1.77;;;0.95;;
10458;SDS011;5277;48.722;8.736;2023-08-07T08:56:21;1.58;;;0.90;;
10458;SDS011;5277;48.722;8.736;2023-08-07T08:58:48;2.67;;;1.17;;
10458;SDS011;5277;48.722;8.736;2023-08-07T09:01:15;0.93;;;0.82;;
10458;SDS011;5277;48.722;8.736;2023-08-07T09:03:43;1.45;;;0.95;;
10458;SDS011;5277;48.722;8.736;2023-08-07T09:06:10;1.38;;;0.80;;
10458;SDS011;5277;48.722;8.736;2023-08-07T09:08:37;2.40;;;1.02;;
10458;SDS011;5277;48.722;8.736;2023-08-07T09:11:05;3.63;;;1.10;;
10458;SDS011;5277;48.722;8.736;2023-08-07T09:13:32;2.45;;;1.10;;
10458;SDS011;5277;48.722;8.736;2023-08-07T09:16:01;1.60;;;1.00;;
10458;SDS011;5277;48.722;8.736;2023-08-07T09:18:27;1.70;;;1.10;;
10458;SDS011;5277;48.722;8.736;2023-08-07T09:20:53;1.40;;;1.00;;
10458;SDS011;5277;48.722;8.736;2023-08-07T09:23:19;1.90;;;0.90;;
10458;SDS011;5277;48.722;8.736;2023-08-07T09:25:46;1.75;;;1.00;;
10458;SDS011;5277;48.722;8.736;2023-08-07T09:28:12;1.38;;;0.95;;
10458;SDS011;5277;48.722;8.736;2023-08-07T09:30:38;1.65;;;1.10;;
10458;SDS011;5277;48.722;8.736;2023-08-07T09:33:04;1.40;;;1.00;;
10458;SDS011;5277;48.722;8.736;2023-08-07T09:35:31;2.20;;;1.17;;
10458;SDS011;5277;48.722;8.736;2023-08-07T09:37:58;1.00;;;0.90;;
10458;SDS011;5277;48.722;8.736;2023-08-07T09:40:23;3.13;;;1.27;;
10458;SDS011;5277;48.722;8.736;2023-08-07T09:42:50;1.88;;;1.15;;
10458;SDS011;5277;48.722;8.736;2023-08-07T09:45:21;3.85;;;1.00;;
10458;SDS011;5277;48.722;8.736;2023-08-07T09:47:56;3.35;;;1.10;;
10458;SDS011;5277;48.722;8.736;2023-08-07T09:50:29;2.08;;;1.10;;
10458;SDS011;5277;48.722;8.736;2023-08-07T09:52:55;2.20;;;0.98;;
10458;SDS011;5277;48.722;8.736;2023-08-07T09:55:22;2.30;;;0.90;;
10458;SDS011;5277;48.722;8.736;2023-08-07T09:57:49;2.20;;;1.30;;
10458;SDS011;5277;48.722;8.736;2023-08-07T10:00:15;1.10;;;0.98;;
10458;SDS011;5277;48.722;8.736;2023-08-07T10:02:44;1.83;;;0.90;;
10458;SDS011;5277;48.722;8.736;2023-08-07T10:05:14;1.52;;;1.02;;
10458;SDS011;5277;48.722;8.736;2023-08-07T10:07:40;1.17;;;1.00;;
10458;SDS011;5277;48.722;8.736;2023-08-07T10:10:07;1.58;;;1.00;;
10458;SDS011;5277;48.722;8.736;2023-08-07T10:12:34;2.78;;;1.02;;
10458;SDS011;5277;48.722;8.736;2023-08-07T10:15:02;2.28;;;1.10;;
10458;SDS011;5277;48.722;8.736;2023-08-07T10:17:28;1.10;;;1.00;;
10458;SDS011;5277;48.722;8.736;2023-08-07T10:19:56;1.50;;;0.95;;
10458;SDS011;5277;48.722;8.736;2023-08-07T10:22:27;3.45;;;1.27;;
10458;SDS011;5277;48.722;8.736;2023-08-07T10:24:56;2.53;;;1.05;;
10458;SDS011;5277;48.722;8.736;2023-08-07T10:27:25;1.92;;;1.20;;
10458;SDS011;5277;48.722;8.736;2023-08-07T10:29:54;2.80;;;1.10;;
10458;SDS011;5277;48.722;8.736;2023-08-07T10:32:23;1.83;;;1.17;;
10458;SDS011;5277;48.722;8.736;2023-08-07T10:34:52;2.28;;;1.20;;
10458;SDS011;5277;48.722;8.736;2023-08-07T10:40:07;1.55;;;1.10;;
10458;SDS011;5277;48.722;8.736;2023-08-07T10:45:36;3.53;;;1.63;;
10458;SDS011;5277;48.722;8.736;2023-08-07T10:48:02;2.35;;;1.20;;
10458;SDS011;5277;48.722;8.736;2023-08-07T10:50:33;1.90;;;1.25;;
10458;SDS011;5277;48.722;8.736;2023-08-07T10:53:03;1.55;;;1.20;;
10458;SDS011;5277;48.722;8.736;2023-08-07T10:55:44;1.27;;;1.10;;
10458;SDS011;5277;48.722;8.736;2023-08-07T10:58:23;2.50;;;1.20;;
10458;SDS011;5277;48.722;8.736;2023-08-07T11:00:51;2.67;;;1.25;;
10458;SDS011;5277;48.722;8.736;2023-08-07T11:03:26;1.80;;;1.20;;
10458;SDS011;5277;48.722;8.736;2023-08-07T11:05:53;1.40;;;1.10;;
10458;SDS011;5277;48.722;8.736;2023-08-07T11:08:25;1.38;;;1.25;;
10458;SDS011;5277;48.722;8.736;2023-08-07T11:10:53;1.92;;;1.35;;
10458;SDS011;5277;48.722;8.736;2023-08-07T11:13:20;1.20;;;0.90;;
10458;SDS011;5277;48.722;8.736;2023-08-07T11:15:46;1.42;;;1.08;;
10458;SDS011;5277;48.722;8.736;2023-08-07T11:18:12;1.30;;;1.13;;
10458;SDS011;5277;48.722;8.736;2023-08-07T11:20:38;2.63;;;1.10;;
10458;SDS011;5277;48.722;8.736;2023-08-07T11:23:04;3.00;;;1.10;;
10458;SDS011;5277;48.722;8.736;2023-08-07T11:25:31;1.70;;;1.30;;
10458;SDS011;5277;48.722;8.736;2023-08-07T11:27:56;2.40;;;1.23;;
10458;SDS011;5277;48.722;8.736;2023-08-07T11:30:23;3.22;;;1.33;;
10458;SDS011;5277;48.722;8.736;2023-08-07T11:32:49;2.70;;;1.10;;
10458;SDS011;5277;48.722;8.736;2023-08-07T11:35:14;2.90;;;1.20;;
10458;SDS011;5277;48.722;8.736;2023-08-07T11:37:47;1.85;;;1.13;;
10458;SDS011;5277;48.722;8.736;2023-08-07T11:40:12;1.90;;;1.15;;
10458;SDS011;5277;48.722;8.736;2023-08-07T11:42:38;1.38;;;1.17;;
10458;SDS011;5277;48.722;8.736;2023-08-07T11:45:05;1.60;;;1.20;;
10458;SDS011;5277;48.722;8.736;2023-08-07T11:47:31;2.42;;;1.35;;
10458;SDS011;5277;48.722;8.736;2023-08-07T11:49:58;3.97;;;1.50;;
10458;SDS011;5277;48.722;8.736;2023-08-07T11:52:24;2.30;;;1.33;;
10458;SDS011;5277;48.722;8.736;2023-08-07T11:54:49;2.03;;;1.23;;
10458;SDS011;5277;48.722;8.736;2023-08-07T11:57:17;2.20;;;1.40;;
10458;SDS011;5277;48.722;8.736;2023-08-07T11:59:51;1.38;;;1.20;;
10458;SDS011;5277;48.722;8.736;2023-08-07T12:02:21;2.42;;;1.45;;
10458;SDS011;5277;48.722;8.736;2023-08-07T12:04:48;2.35;;;1.10;;
10458;SDS011;5277;48.722;8.736;2023-08-07T12:07:16;1.70;;;1.20;;
10458;SDS011;5277;48.722;8.736;2023-08-07T12:09:44;1.80;;;1.40;;
10458;SDS011;5277;48.722;8.736;2023-08-07T12:12:10;1.52;;;1.23;;
10458;SDS011;5277;48.722;8.736;2023-08-07T12:14:36;4.43;;;1.42;;
10458;SDS011;5277;48.722;8.736;2023-08-07T12:17:03;4.53;;;1.30;;
10458;SDS011;5277;48.722;8.736;2023-08-07T12:19:36;1.20;;;1.00;;
10458;SDS011;5277;48.722;8.736;2023-08-07T12:22:09;1.48;;;1.05;;
10458;SDS011;5277;48.722;8.736;2023-08-07T12:24:36;2.40;;;1.35;;
10458;SDS011;5277;48.722;8.736;2023-08-07T12:27:02;1.92;;;1.30;;
10458;SDS011;5277;48.722;8.736;2023-08-07T12:29:29;1.95;;;1.00;;
10458;SDS011;5277;48.722;8.736;2023-08-07T12:31:55;1.83;;;1.13;;
10458;SDS011;5277;48.722;8.736;2023-08-07T12:34:21;3.45;;;1.42;;
10458;SDS011;5277;48.722;8.736;2023-08-07T12:36:46;1.90;;;1.10;;
10458;SDS011;5277;48.722;8.736;2023-08-07T12:39:12;2.10;;;1.30;;
10458;SDS011;5277;48.722;8.736;2023-08-07T12:41:38;1.30;;;1.20;;
10458;SDS011;5277;48.722;8.736;2023-08-07T12:44:03;2.20;;;1.30;;
10458;SDS011;5277;48.722;8.736;2023-08-07T12:46:30;2.22;;;1.02;;
10458;SDS011;5277;48.722;8.736;2023-08-07T12:48:55;2.63;;;1.50;;
10458;SDS011;5277;48.722;8.736;2023-08-07T12:51:21;2.03;;;1.27;;
10458;SDS011;5277;48.722;8.736;2023-08-07T12:53:47;2.75;;;1.40;;
10458;SDS011;5277;48.722;8.736;2023-08-07T12:56:12;3.97;;;1.45;;
10458;SDS011;5277;48.722;8.736;2023-08-07T12:58:39;1.70;;;1.30;;
10458;SDS011;5277;48.722;8.736;2023-08-07T13:01:04;2.33;;;1.40;;
10458;SDS011;5277;48.722;8.736;2023-08-07T13:03:30;4.65;;;1.30;;
10458;SDS011;5277;48.722;8.736;2023-08-07T13:05:55;2.03;;;1.20;;
10458;SDS011;5277;48.722;8.736;2023-08-07T13:08:21;3.75;;;1.40;;
10458;SDS011;5277;48.722;8.736;2023-08-07T13:10:47;1.73;;;1.30;;
10458;SDS011;5277;48.722;8.736;2023-08-07T13:13:12;1.38;;;1.10;;
10458;SDS011;5277;48.722;8.736;2023-08-07T13:15:38;2.13;;;1.27;;
10458;SDS011;5277;48.722;8.736;2023-08-07T13:18:03;3.35;;;1.40;;
10458;SDS011;5277;48.722;8.736;2023-08-07T13:20:29;1.98;;;1.27;;
10458;SDS011;5277;48.722;8.736;2023-08-07T13:22:58;1.42;;;1.10;;
10458;SDS011;5277;48.722;8.736;2023-08-07T13:25:25;1.73;;;1.30;;
10458;SDS011;5277;48.722;8.736;2023-08-07T13:27:50;1.80;;;1.30;;
10458;SDS011;5277;48.722;8.736;2023-08-07T13:30:16;1.73;;;1.27;;
10458;SDS011;5277;48.722;8.736;2023-08-07T13:32:42;2.00;;;1.10;;
10458;SDS011;5277;48.722;8.736;2023-08-07T13:35:07;2.00;;;1.50;;
10458;SDS011;5277;48.722;8.736;2023-08-07T13:37:34;3.90;;;1.52;;
10458;SDS011;5277;48.722;8.736;2023-08-07T13:39:59;2.47;;;1.30;;
10458;SDS011;5277;48.722;8.736;2023-08-07T13:42:25;2.30;;;1.40;;
10458;SDS011;5277;48.722;8.736;2023-08-07T13:44:53;2.35;;;1.40;;
10458;SDS011;5277;48.722;8.736;2023-08-07T13:47:20;2.35;;;1.50;;
10458;SDS011;5277;48.722;8.736;2023-08-07T13:49:45;2.75;;;1.20;;
10458;SDS011;5277;48.722;8.736;2023-08-07T13:52:12;2.10;;;1.17;;
10458;SDS011;5277;48.722;8.736;2023-08-07T13:54:38;3.45;;;1.38;;
10458;SDS011;5277;48.722;8.736;2023-08-07T13:57:04;2.10;;;1.20;;
10458;SDS011;5277;48.722;8.736;2023-08-07T13:59:30;3.90;;;1.30;;
10458;SDS011;5277;48.722;8.736;2023-08-07T14:01:56;1.50;;;1.30;;
10458;SDS011;5277;48.722;8.736;2023-08-07T14:04:22;3.42;;;1.58;;
10458;SDS011;5277;48.722;8.736;2023-08-07T14:06:47;1.92;;;1.40;;
10458;SDS011;5277;48.722;8.736;2023-08-07T14:09:13;2.78;;;1.40;;
10458;SDS011;5277;48.722;8.736;2023-08-07T14:11:39;1.77;;;1.42;;
10458;SDS011;5277;48.722;8.736;2023-08-07T14:14:05;2.00;;;1.30;;
10458;SDS011;5277;48.722;8.736;2023-08-07T14:16:30;1.63;;;1.20;;
10458;SDS011;5277;48.722;8.736;2023-08-07T14:18:56;1.73;;;1.10;;
10458;SDS011;5277;48.722;8.736;2023-08-07T14:21:22;2.88;;;1.90;;
10458;SDS011;5277;48.722;8.736;2023-08-07T14:23:48;2.70;;;1.40;;
10458;SDS011;5277;48.722;8.736;2023-08-07T14:26:14;1.30;;;1.20;;
10458;SDS011;5277;48.722;8.736;2023-08-07T14:28:40;1.80;;;1.40;;
10458;SDS011;5277;48.722;8.736;2023-08-07T14:31:07;2.17;;;1.40;;
10458;SDS011;5277;48.722;8.736;2023-08-07T14:33:33;1.33;;;1.10;;
10458;SDS011;5277;48.722;8.736;2023-08-07T14:35:59;1.77;;;1.50;;
10458;SDS011;5277;48.722;8.736;2023-08-07T14:38:25;2.22;;;1.75;;
10458;SDS011;5277;48.722;8.736;2023-08-07T14:40:51;2.58;;;1.40;;
10458;SDS011;5277;48.722;8.736;2023-08-07T14:43:17;2.00;;;1.60;;
10458;SDS011;5277;48.722;8.736;2023-08-07T14:45:42;2.08;;;1.58;;
10458;SDS011;5277;48.722;8.736;2023-08-07T14:48:08;2.67;;;1.67;;
10458;SDS011;5277;48.722;8.736;2023-08-07T14:50:34;1.60;;;1.30;;
10458;SDS011;5277;48.722;8.736;2023-08-07T14:52:59;2.30;;;1.55;;
10458;SDS011;5277;48.722;8.736;2023-08-07T14:55:25;2.60;;;1.40;;
10458;SDS011;5277;48.722;8.736;2023-08-07T14:57:50;1.90;;;1.52;;
10458;SDS011;5277;48.722;8.736;2023-08-07T15:00:16;2.05;;;1.67;;
10458;SDS011;5277;48.722;8.736;2023-08-07T15:02:43;1.75;;;1.50;;
10458;SDS011;5277;48.722;8.736;2023-08-07T15:05:08;2.75;;;1.70;;
10458;SDS011;5277;48.722;8.736;2023-08-07T15:07:34;2.05;;;1.50;;
10458;SDS011;5277;48.722;8.736;2023-08-07T15:09:59;5.32;;;1.60;;